createdAt,value
2018-05-25T00:02:45.265Z,15.4
2018-05-25T00:08:14.352Z,15.4
2018-05-25T00:13:44.443Z,15.3
2018-05-25T00:19:13.588Z,15.3
2018-05-25T00:24:42.626Z,15.3
2018-05-25T00:30:12.659Z,15.2
2018-05-25T00:35:42.699Z,15.2
2018-05-25T00:41:11.757Z,15.1
2018-05-25T00:46:40.844Z,15.1
2018-05-25T00:52:09.874Z,15.1
2018-05-25T00:57:38.877Z,15.1
2018-05-25T01:03:08.962Z,15.1
2018-05-25T01:08:39.015Z,15
2018-05-25T01:14:09.203Z,15
2018-05-25T01:19:39.090Z,15
2018-05-25T01:25:08.465Z,15
2018-05-25T01:30:38.381Z,15
2018-05-25T01:36:08.510Z,15
2018-05-25T01:41:37.370Z,15
2018-05-25T01:41:37.840Z,15
2018-05-25T01:47:06.295Z,14.9
2018-05-25T01:52:35.341Z,14.9
2018-05-25T01:58:04.446Z,14.8
2018-05-25T02:03:34.390Z,14.8
2018-05-25T02:09:03.371Z,14.7
2018-05-25T02:09:05.295Z,14.7
2018-05-25T02:14:32.445Z,14.7
2018-05-25T02:14:37.785Z,14.7
2018-05-25T02:20:02.468Z,14.7
2018-05-25T02:20:06.751Z,14.7
2018-05-25T02:25:31.373Z,14.7
2018-05-25T02:31:01.536Z,14.6
2018-05-25T02:31:01.985Z,14.6
2018-05-25T02:36:31.388Z,14.6
2018-05-25T02:42:00.384Z,14.6
2018-05-25T02:47:29.351Z,14.5
2018-05-25T02:52:59.353Z,14.5
2018-05-25T02:53:00.237Z,14.5
2018-05-25T02:58:28.424Z,14.5
2018-05-25T03:03:58.350Z,14.4
2018-05-25T03:09:28.349Z,14.4
2018-05-25T03:09:29.041Z,14.4
2018-05-25T03:14:58.370Z,14.4
2018-05-25T03:20:28.361Z,14.4
2018-05-25T03:25:57.231Z,14.5
2018-05-25T03:31:27.222Z,14.5
2018-05-25T03:36:57.231Z,14.5
2018-05-25T03:42:26.191Z,14.5
2018-05-25T03:42:27.341Z,14.5
2018-05-25T03:47:55.260Z,14.5
2018-05-25T03:53:25.204Z,14.5
2018-05-25T03:58:55.269Z,14.5
2018-05-25T04:04:24.285Z,14.6
2018-05-25T04:09:53.136Z,14.6
2018-05-25T04:09:54.067Z,14.6
2018-05-25T04:15:22.090Z,14.7
2018-05-25T04:20:52.102Z,14.7
2018-05-25T04:20:53.368Z,14.7
2018-05-25T04:26:22.162Z,14.8
2018-05-25T04:26:23.470Z,14.8
2018-05-25T04:31:52.096Z,14.8
2018-05-25T04:37:21.315Z,14.8
2018-05-25T04:42:51.131Z,14.8
2018-05-25T04:48:21.137Z,14.9
2018-05-25T04:53:50.299Z,15
2018-05-25T04:59:19.212Z,15.1
2018-05-25T05:04:48.243Z,15.1
2018-05-25T05:10:17.298Z,15.2
2018-05-25T05:15:46.306Z,15.3
2018-05-25T05:21:15.393Z,15.4
2018-05-25T05:21:16.405Z,15.4
2018-05-25T05:26:44.647Z,15.5
2018-05-25T05:32:13.482Z,15.5
2018-05-25T05:37:43.619Z,15.6
2018-05-25T05:43:12.660Z,15.7
2018-05-25T05:48:42.826Z,15.9
2018-05-25T05:48:44.210Z,15.9
2018-05-25T05:54:11.865Z,16
2018-05-25T05:54:13.329Z,16
2018-05-25T05:59:42.007Z,16.1
2018-05-25T05:59:46.501Z,16.1
2018-05-25T06:05:11.148Z,16.2
2018-05-25T06:06:03.958Z,16.2
2018-05-25T06:10:41.292Z,16.4
2018-05-25T06:12:37.510Z,16.4
2018-05-25T06:16:11.543Z,16.6
2018-05-25T06:19:50.734Z,16.6
2018-05-25T06:21:41.680Z,16.8
2018-05-25T06:27:10.874Z,17
2018-05-25T06:27:16.260Z,17
2018-05-25T06:32:40.231Z,17.2
2018-05-25T06:38:10.460Z,17.4
2018-05-25T06:43:39.696Z,17.6
2018-05-25T06:49:09.020Z,17.8
2018-05-25T06:54:38.350Z,18
2018-05-25T06:58:40.583Z,18
2018-05-25T07:00:07.852Z,18.2
2018-05-25T07:00:27.623Z,18.2
2018-05-25T07:05:38.149Z,18.3
2018-05-25T07:11:08.382Z,18.5
2018-05-25T07:16:38.824Z,18.6
2018-05-25T07:22:08.392Z,18.8
2018-05-25T07:27:37.744Z,18.9
2018-05-25T07:33:08.251Z,19
2018-05-25T07:38:37.677Z,19.1
2018-05-25T07:44:07.132Z,19.3
2018-05-25T07:49:37.531Z,19.4
2018-05-25T07:55:06.951Z,19.5
2018-05-25T08:00:36.648Z,19.6
2018-05-25T08:06:05.992Z,19.8
2018-05-25T08:11:35.772Z,19.9
2018-05-25T08:17:06.306Z,20.1
2018-05-25T08:22:35.818Z,20.1
2018-05-25T08:28:05.365Z,20.2
2018-05-25T08:33:35.971Z,20.2
2018-05-25T08:39:05.638Z,20.3
2018-05-25T08:44:35.331Z,20.4
2018-05-25T08:50:05.860Z,20.5
2018-05-25T08:55:35.659Z,20.6
2018-05-25T09:01:05.199Z,20.8
2018-05-25T09:06:35.920Z,21
2018-05-25T09:12:06.675Z,21.1
2018-05-25T09:17:36.330Z,21.2
2018-05-25T09:23:07.061Z,21.3
2018-05-25T09:28:37.048Z,21.3
2018-05-25T09:34:06.694Z,21.4
2018-05-25T09:39:36.301Z,21.5
2018-05-25T09:45:06.052Z,21.6
2018-05-25T09:50:36.787Z,21.6
2018-05-25T09:56:07.613Z,21.8
2018-05-25T10:01:37.373Z,21.9
2018-05-25T10:07:07.153Z,22
2018-05-25T10:12:37.969Z,22.1
2018-05-25T10:18:07.893Z,22.3
2018-05-25T10:18:08.354Z,22.3
2018-05-25T10:23:38.561Z,22.4
2018-05-25T10:29:09.403Z,22.5
2018-05-25T10:34:39.254Z,22.5
2018-05-25T10:40:10.176Z,22.5
2018-05-25T10:45:39.986Z,22.5
2018-05-25T10:51:10.827Z,22.5
2018-05-25T10:56:41.690Z,22.6
2018-05-25T11:02:11.558Z,22.7
2018-05-25T11:07:41.518Z,22.8
2018-05-25T11:13:12.347Z,22.9
2018-05-25T11:18:42.569Z,22.9
2018-05-25T11:24:13.272Z,23
2018-05-25T11:29:44.215Z,23.1
2018-05-25T11:35:14.161Z,23.1
2018-05-25T11:40:45.008Z,23.1
2018-05-25T11:46:15.987Z,23.2
2018-05-25T11:51:46.048Z,23.3
2018-05-25T11:57:16.882Z,23.4
2018-05-25T12:02:48.042Z,23.4
2018-05-25T12:08:18.265Z,23.4
2018-05-25T12:13:48.164Z,23.4
2018-05-25T12:19:18.762Z,23.3
2018-05-25T12:24:48.986Z,23.4
2018-05-25T12:30:18.682Z,23.4
2018-05-25T12:35:49.747Z,23.5
2018-05-25T12:41:20.786Z,23.5
2018-05-25T12:46:50.717Z,23.5
2018-05-25T12:52:20.687Z,23.4
2018-05-25T12:57:50.729Z,23.5
2018-05-25T13:03:20.782Z,23.6
2018-05-25T13:08:51.689Z,23.6
2018-05-25T13:14:21.590Z,23.6
2018-05-25T13:19:52.607Z,23.6
2018-05-25T13:25:22.626Z,23.7
2018-05-25T13:30:52.651Z,23.7
2018-05-25T13:36:22.674Z,23.7
2018-05-25T13:41:52.674Z,23.8
2018-05-25T13:47:22.742Z,23.7
2018-05-25T13:52:53.913Z,23.6
2018-05-25T13:58:24.700Z,23.5
2018-05-25T14:03:54.781Z,23.5
2018-05-25T14:09:24.710Z,23.5
2018-05-25T14:14:54.702Z,23.5
2018-05-25T14:20:24.693Z,23.5
2018-05-25T14:25:55.725Z,23.4
2018-05-25T14:31:25.678Z,23.3
2018-05-25T14:36:55.812Z,23.2
2018-05-25T14:42:25.613Z,23.2
2018-05-25T14:47:56.719Z,23.1
2018-05-25T14:53:27.514Z,23
2018-05-25T14:58:57.615Z,22.9
2018-05-25T15:04:27.358Z,22.9
2018-05-25T15:09:57.291Z,22.9
2018-05-25T15:15:28.238Z,22.9
2018-05-25T15:20:58.334Z,22.9
2018-05-25T15:26:29.127Z,22.9
2018-05-25T15:32:00.129Z,22.9
2018-05-25T15:37:29.946Z,22.9
2018-05-25T15:42:59.879Z,22.8
2018-05-25T15:48:29.821Z,22.8
2018-05-25T15:53:59.952Z,22.8
2018-05-25T15:59:29.648Z,22.8
2018-05-25T16:04:59.587Z,22.7
2018-05-25T16:10:30.453Z,22.7
2018-05-25T16:16:01.356Z,22.6
2018-05-25T16:21:31.256Z,22.6
2018-05-25T16:27:02.250Z,22.6
2018-05-25T16:32:33.110Z,22.6
2018-05-25T16:38:03.001Z,22.5
2018-05-25T16:43:33.862Z,22.5
2018-05-25T16:49:04.739Z,22.5
2018-05-25T16:54:35.647Z,22.5
2018-05-25T17:00:05.511Z,22.4
2018-05-25T17:05:36.615Z,22.3
2018-05-25T17:11:07.300Z,22.1
2018-05-25T17:16:37.110Z,22
2018-05-25T17:22:08.196Z,21.9
2018-05-25T17:27:37.763Z,21.9
2018-05-25T17:33:08.542Z,21.8
2018-05-25T17:38:38.322Z,21.6
2018-05-25T17:44:08.985Z,21.5
2018-05-25T17:49:37.982Z,21.3
2018-05-25T17:55:08.575Z,21.2
2018-05-25T18:00:39.312Z,21.1
2018-05-25T18:06:09.103Z,20.9
2018-05-25T18:11:39.911Z,20.7
2018-05-25T18:17:10.478Z,20.5
2018-05-25T18:22:40.182Z,20.3
2018-05-25T18:28:09.879Z,20.1
2018-05-25T18:33:39.410Z,19.9
2018-05-25T18:39:10.068Z,19.8
2018-05-25T18:44:39.632Z,19.6
2018-05-25T18:50:09.205Z,19.4
2018-05-25T18:55:39.729Z,19.3
2018-05-25T19:01:09.200Z,19.1
2018-05-25T19:06:39.709Z,18.9
2018-05-25T19:12:10.220Z,18.8
2018-05-25T19:17:39.640Z,18.6
2018-05-25T19:23:09.999Z,18.5
2018-05-25T19:23:10.666Z,18.5
2018-05-25T19:28:39.407Z,18.4
2018-05-25T19:34:09.833Z,18.3
2018-05-25T19:39:40.320Z,18.1
2018-05-25T19:39:43.140Z,18.1
2018-05-25T19:45:09.619Z,18
2018-05-25T19:45:13.272Z,18
2018-05-25T19:50:39.973Z,17.9
2018-05-25T19:50:46.196Z,17.9
2018-05-25T19:56:10.352Z,17.8
2018-05-25T19:56:47.738Z,17.8
2018-05-25T20:01:39.626Z,17.7
2018-05-25T20:03:18.342Z,17.7
2018-05-25T20:07:10.013Z,17.7
2018-05-25T20:10:04.553Z,17.7
2018-05-25T20:12:39.246Z,17.6
2018-05-25T20:18:09.559Z,17.5
2018-05-25T20:22:30.362Z,17.5
2018-05-25T20:23:39.856Z,17.4
2018-05-25T20:24:08.709Z,17.4
2018-05-25T20:29:10.193Z,17.3
2018-05-25T20:34:39.454Z,17.1
2018-05-25T20:40:09.721Z,17
2018-05-25T20:42:12.896Z,17
2018-05-25T20:45:40.125Z,16.9
2018-05-25T20:51:09.505Z,16.9
2018-05-25T20:56:38.462Z,16.9
2018-05-25T21:02:08.692Z,16.8
2018-05-25T21:07:38.939Z,16.8
2018-05-25T21:13:09.185Z,16.8
2018-05-25T21:18:38.427Z,16.7
2018-05-25T21:20:31.167Z,16.7
2018-05-25T21:24:07.633Z,16.7
2018-05-25T21:24:51.458Z,16.7
2018-05-25T21:29:37.896Z,16.6
2018-05-25T21:35:07.074Z,16.5
2018-05-25T21:40:37.274Z,16.4
2018-05-25T21:46:06.435Z,16.3
2018-05-25T21:51:36.638Z,16.2
2018-05-25T21:51:39.980Z,16.2
2018-05-25T21:57:06.845Z,16.1
2018-05-25T22:02:35.964Z,16.1
2018-05-25T22:08:05.222Z,16
2018-05-25T22:13:34.357Z,15.9
2018-05-25T22:15:07.891Z,15.9
2018-05-25T22:19:03.410Z,15.8
2018-05-25T22:19:10.186Z,15.8
2018-05-25T22:24:32.578Z,15.6
2018-05-25T22:30:01.629Z,15.4
2018-05-25T22:35:30.645Z,15.3
2018-05-25T22:38:18.378Z,15.3
2018-05-25T22:40:59.693Z,15.2
2018-05-25T22:46:29.751Z,15.2
2018-05-25T22:51:59.870Z,15.2
2018-05-25T22:57:28.946Z,15.2
2018-05-25T23:02:58.933Z,15.1
2018-05-25T23:03:01.754Z,15.1
2018-05-25T23:08:28.028Z,15.1
2018-05-25T23:13:57.084Z,15.1
2018-05-25T23:19:26.099Z,15
2018-05-25T23:19:27.410Z,15
2018-05-25T23:24:56.135Z,14.9
2018-05-25T23:30:26.231Z,14.9
2018-05-25T23:35:56.356Z,14.8
2018-05-25T23:41:25.195Z,14.7
2018-05-25T23:44:37.386Z,14.7
2018-05-25T23:46:54.176Z,14.8
2018-05-25T23:49:19.180Z,14.8
2018-05-25T23:52:24.198Z,14.8
2018-05-25T23:57:54.256Z,14.8
